createdAt,value
2017-06-27T00:00:19.325Z,9.00
2017-06-27T00:02:48.474Z,9.20
2017-06-27T00:05:17.630Z,9.40
2017-06-27T00:07:46.803Z,9.30
2017-06-27T00:10:15.963Z,7.67
2017-06-27T00:12:45.121Z,9.37
2017-06-27T00:15:14.270Z,9.50
2017-06-27T00:17:43.416Z,8.80
2017-06-27T00:20:12.575Z,9.00
2017-06-27T00:22:41.729Z,9.80
2017-06-27T00:25:10.886Z,10.07
2017-06-27T00:27:40.055Z,9.00
2017-06-27T00:30:09.191Z,8.57
2017-06-27T00:32:38.347Z,9.80
2017-06-27T00:35:07.511Z,8.63
2017-06-27T00:37:36.664Z,9.53
2017-06-27T00:40:05.805Z,10.07
2017-06-27T00:42:34.983Z,8.80
2017-06-27T00:45:04.157Z,8.80
2017-06-27T00:47:33.308Z,8.10
2017-06-27T00:50:02.472Z,7.87
2017-06-27T00:52:31.635Z,8.40
2017-06-27T00:55:00.782Z,7.80
2017-06-27T00:57:29.939Z,9.03
2017-06-27T00:59:59.096Z,8.07
2017-06-27T01:02:28.243Z,8.10
2017-06-27T01:04:57.403Z,7.87
2017-06-27T01:07:26.547Z,8.00
2017-06-27T01:09:55.714Z,9.00
2017-06-27T01:12:24.864Z,8.63
2017-06-27T01:14:54.010Z,9.23
2017-06-27T01:17:23.171Z,7.90
2017-06-27T01:19:52.324Z,8.80
2017-06-27T01:22:21.484Z,9.10
2017-06-27T01:24:50.624Z,8.70
2017-06-27T01:27:19.776Z,8.00
2017-06-27T01:29:48.927Z,8.77
2017-06-27T01:32:18.081Z,9.07
2017-06-27T01:34:47.235Z,8.93
2017-06-27T01:37:16.391Z,9.13
2017-06-27T01:39:45.553Z,9.10
2017-06-27T01:42:14.691Z,9.30
2017-06-27T01:44:43.863Z,8.80
2017-06-27T01:47:13.000Z,9.30
2017-06-27T01:49:42.160Z,10.60
2017-06-27T01:52:11.318Z,9.80
2017-06-27T01:54:40.480Z,8.93
2017-06-27T01:57:09.636Z,9.57
2017-06-27T01:59:38.799Z,10.27
2017-06-27T02:02:07.977Z,8.97
2017-06-27T02:04:37.135Z,9.00
2017-06-27T02:07:06.295Z,9.07
2017-06-27T02:09:35.443Z,9.90
2017-06-27T02:12:04.603Z,9.17
2017-06-27T02:14:33.766Z,9.57
2017-06-27T02:17:02.914Z,9.33
2017-06-27T02:19:32.082Z,9.60
2017-06-27T02:22:01.251Z,10.47
2017-06-27T02:24:30.430Z,9.87
2017-06-27T02:26:59.584Z,9.20
2017-06-27T02:29:28.737Z,9.60
2017-06-27T02:31:57.907Z,9.83
2017-06-27T02:34:27.064Z,8.53
2017-06-27T02:36:56.238Z,9.33
2017-06-27T02:39:25.399Z,9.60
2017-06-27T02:41:54.562Z,10.20
2017-06-27T02:44:23.739Z,10.17
2017-06-27T02:46:52.898Z,8.70
2017-06-27T02:49:22.042Z,9.93
2017-06-27T02:51:51.230Z,10.30
2017-06-27T02:54:20.366Z,9.80
2017-06-27T02:56:49.522Z,10.33
2017-06-27T02:59:18.676Z,9.50
2017-06-27T03:01:47.810Z,9.97
2017-06-27T03:04:16.967Z,8.83
2017-06-27T03:06:46.154Z,9.27
2017-06-27T03:09:15.314Z,9.17
2017-06-27T03:11:44.471Z,9.87
2017-06-27T03:14:13.627Z,10.33
2017-06-27T03:16:42.792Z,9.27
2017-06-27T03:19:11.947Z,10.07
2017-06-27T03:21:41.134Z,9.67
2017-06-27T03:24:10.272Z,8.93
2017-06-27T03:26:39.420Z,9.60
2017-06-27T03:29:08.592Z,8.30
2017-06-27T03:31:37.760Z,9.40
2017-06-27T03:34:06.905Z,9.73
2017-06-27T03:36:36.083Z,10.03
2017-06-27T03:39:05.240Z,10.20
2017-06-27T03:41:34.395Z,10.67
2017-06-27T03:44:03.547Z,10.10
2017-06-27T03:46:32.695Z,10.33
2017-06-27T03:49:01.845Z,9.80
2017-06-27T03:51:31.023Z,9.47
2017-06-27T03:54:00.188Z,9.27
2017-06-27T03:56:29.365Z,7.73
2017-06-27T03:58:58.506Z,9.47
2017-06-27T04:01:27.650Z,9.80
2017-06-27T04:03:56.806Z,8.80
2017-06-27T04:06:25.983Z,9.67
2017-06-27T04:08:55.141Z,9.30
2017-06-27T04:11:24.292Z,8.80
2017-06-27T04:13:53.444Z,8.53
2017-06-27T04:16:22.601Z,9.03
2017-06-27T04:18:51.755Z,8.83
2017-06-27T04:21:20.943Z,9.40
2017-06-27T04:23:50.099Z,8.63
2017-06-27T04:26:19.244Z,8.60
2017-06-27T04:28:48.412Z,9.30
2017-06-27T04:31:17.564Z,8.80
2017-06-27T04:33:46.710Z,8.20
2017-06-27T04:36:15.880Z,7.97
2017-06-27T04:38:45.027Z,9.40
2017-06-27T04:41:14.179Z,9.00
2017-06-27T04:43:43.337Z,10.47
2017-06-27T04:46:12.507Z,9.07
2017-06-27T04:48:41.659Z,7.83
2017-06-27T04:51:10.849Z,9.07
2017-06-27T04:53:39.983Z,8.97
2017-06-27T04:56:09.146Z,9.80
2017-06-27T04:58:38.286Z,8.10
2017-06-27T05:01:07.459Z,9.07
2017-06-27T05:03:36.596Z,9.00
2017-06-27T05:06:05.754Z,7.83
2017-06-27T05:08:34.908Z,9.40
2017-06-27T05:11:04.063Z,8.70
2017-06-27T05:13:33.212Z,9.30
2017-06-27T05:16:02.370Z,9.30
2017-06-27T05:18:31.538Z,9.00
2017-06-27T05:21:00.721Z,9.60
2017-06-27T05:23:29.871Z,8.47
2017-06-27T05:25:59.035Z,10.33
2017-06-27T05:28:28.199Z,9.20
2017-06-27T05:30:57.356Z,11.13
2017-06-27T05:33:26.502Z,8.33
2017-06-27T05:35:55.674Z,9.63
2017-06-27T05:38:24.830Z,9.00
2017-06-27T05:40:53.979Z,8.93
2017-06-27T05:43:23.140Z,9.40
2017-06-27T05:45:52.285Z,8.93
2017-06-27T05:48:21.445Z,9.03
2017-06-27T05:50:50.630Z,8.80
2017-06-27T05:53:19.791Z,9.47
2017-06-27T05:55:48.933Z,9.53
2017-06-27T05:58:18.091Z,9.33
2017-06-27T06:00:47.251Z,8.87
2017-06-27T06:03:16.403Z,9.40
2017-06-27T06:05:45.567Z,7.83
2017-06-27T06:08:14.719Z,8.93
2017-06-27T06:10:43.879Z,8.73
2017-06-27T06:13:13.033Z,7.60
2017-06-27T06:15:42.220Z,7.33
2017-06-27T06:18:11.349Z,9.23
2017-06-27T06:20:40.534Z,9.57
2017-06-27T06:23:09.680Z,8.83
2017-06-27T06:25:39.180Z,9.17
2017-06-27T06:28:08.317Z,9.50
2017-06-27T06:30:37.465Z,9.20
2017-06-27T06:33:06.659Z,9.60
2017-06-27T06:35:35.855Z,9.53
2017-06-27T06:38:04.999Z,8.47
2017-06-27T06:40:34.143Z,8.10
2017-06-27T06:43:03.294Z,7.63
2017-06-27T06:45:32.454Z,8.50
2017-06-27T06:48:01.604Z,9.23
2017-06-27T06:50:30.788Z,8.90
2017-06-27T06:52:59.918Z,8.00
2017-06-27T06:55:29.061Z,8.07
2017-06-27T06:57:58.223Z,7.93
2017-06-27T07:00:27.362Z,8.97
2017-06-27T07:02:56.511Z,9.00
2017-06-27T07:05:25.675Z,8.40
2017-06-27T07:07:54.805Z,8.50
2017-06-27T07:10:23.966Z,8.80
2017-06-27T07:12:53.110Z,8.80
2017-06-27T07:15:22.274Z,7.90
2017-06-27T07:17:51.417Z,8.87
2017-06-27T07:20:20.582Z,7.90
2017-06-27T07:22:49.726Z,8.70
2017-06-27T07:25:18.883Z,8.00
2017-06-27T07:27:48.027Z,8.50
2017-06-27T07:30:17.186Z,8.30
2017-06-27T07:32:46.328Z,8.50
2017-06-27T07:35:15.484Z,7.70
2017-06-27T07:37:44.632Z,7.07
2017-06-27T07:40:13.807Z,8.20
2017-06-27T07:42:42.954Z,8.10
2017-06-27T07:45:12.107Z,8.00
2017-06-27T07:47:41.256Z,7.87
2017-06-27T07:50:10.437Z,7.30
2017-06-27T07:52:39.564Z,8.07
2017-06-27T07:55:08.708Z,8.40
2017-06-27T07:57:37.851Z,7.00
2017-06-27T08:00:07.009Z,7.90
2017-06-27T08:02:36.158Z,7.83
2017-06-27T08:05:05.387Z,7.53
2017-06-27T08:07:34.551Z,7.70
2017-06-27T08:10:03.699Z,7.70
2017-06-27T08:12:32.859Z,8.00
2017-06-27T08:15:02.003Z,7.87
2017-06-27T08:17:31.168Z,8.10
2017-06-27T08:20:00.303Z,8.10
2017-06-27T08:22:29.446Z,8.30
2017-06-27T08:24:58.599Z,8.13
2017-06-27T08:27:27.732Z,7.87
2017-06-27T08:29:56.894Z,8.60
2017-06-27T08:32:26.034Z,7.97
2017-06-27T08:34:55.195Z,8.13
2017-06-27T08:37:24.351Z,7.43
2017-06-27T08:39:53.493Z,8.20
2017-06-27T08:42:22.660Z,7.73
2017-06-27T08:44:51.813Z,7.93
2017-06-27T08:47:20.972Z,7.33
2017-06-27T08:49:50.131Z,7.40
2017-06-27T08:52:19.272Z,7.03
2017-06-27T08:54:48.417Z,7.10
2017-06-27T08:57:17.570Z,6.83
2017-06-27T08:59:46.714Z,7.33
2017-06-27T09:02:15.884Z,6.90
2017-06-27T09:04:45.030Z,7.37
2017-06-27T09:07:14.166Z,7.47
2017-06-27T09:09:43.330Z,7.10
2017-06-27T09:12:12.464Z,7.63
2017-06-27T09:14:41.619Z,7.20
2017-06-27T09:17:10.778Z,8.07
2017-06-27T09:19:39.927Z,7.33
2017-06-27T09:22:09.079Z,7.67
2017-06-27T09:24:38.223Z,6.93
2017-06-27T09:27:07.367Z,6.50
2017-06-27T09:29:36.518Z,7.57
2017-06-27T09:32:05.671Z,7.00
2017-06-27T09:34:34.811Z,7.30
2017-06-27T09:37:03.954Z,6.10
2017-06-27T09:39:33.105Z,5.97
2017-06-27T09:42:02.250Z,7.00
2017-06-27T09:44:31.418Z,6.13
2017-06-27T09:47:00.567Z,5.90
2017-06-27T09:49:29.715Z,5.13
2017-06-27T09:51:58.889Z,6.73
2017-06-27T09:54:28.057Z,6.87
2017-06-27T09:56:57.214Z,6.43
2017-06-27T09:59:26.350Z,6.70
2017-06-27T10:01:55.526Z,7.70
2017-06-27T10:04:24.668Z,6.90
2017-06-27T10:06:53.848Z,6.67
2017-06-27T10:09:23.003Z,7.17
2017-06-27T10:11:52.169Z,7.57
2017-06-27T10:14:21.327Z,8.30
2017-06-27T10:16:50.479Z,7.20
2017-06-27T10:19:19.625Z,7.30
2017-06-27T10:21:48.797Z,7.83
2017-06-27T10:24:17.952Z,8.40
2017-06-27T10:26:47.096Z,6.53
2017-06-27T10:29:16.248Z,7.50
2017-06-27T10:31:45.406Z,6.97
2017-06-27T10:34:14.556Z,7.53
2017-06-27T10:36:43.730Z,6.77
2017-06-27T10:39:12.873Z,7.80
2017-06-27T10:41:42.019Z,7.23
2017-06-27T10:44:11.171Z,7.30
2017-06-27T10:46:40.323Z,6.30
2017-06-27T10:49:09.471Z,7.70
2017-06-27T10:51:38.647Z,7.00
2017-06-27T10:54:07.787Z,7.23
2017-06-27T10:56:36.942Z,7.77
2017-06-27T10:59:06.094Z,7.97
2017-06-27T11:01:35.230Z,6.93
2017-06-27T11:04:04.410Z,7.70
2017-06-27T11:06:33.592Z,7.87
2017-06-27T11:09:02.734Z,7.03
2017-06-27T11:11:31.898Z,7.13
2017-06-27T11:14:01.034Z,8.17
2017-06-27T11:16:30.203Z,8.20
2017-06-27T11:18:59.351Z,7.53
2017-06-27T11:21:28.537Z,7.57
2017-06-27T11:23:57.681Z,8.20
2017-06-27T11:26:26.828Z,7.07
2017-06-27T11:28:55.976Z,7.93
2017-06-27T11:31:25.146Z,7.10
2017-06-27T11:33:54.290Z,7.60
2017-06-27T11:36:23.464Z,7.40
2017-06-27T11:38:52.607Z,7.63
2017-06-27T11:41:21.760Z,6.40
2017-06-27T11:43:50.912Z,6.23
2017-06-27T11:46:20.060Z,7.00
2017-06-27T11:48:49.215Z,6.80
2017-06-27T11:51:18.384Z,6.83
2017-06-27T11:53:47.532Z,7.10
2017-06-27T11:56:16.690Z,6.17
2017-06-27T11:58:45.831Z,6.10
2017-06-27T12:01:20.808Z,6.50
2017-06-27T12:03:55.860Z,5.93
2017-06-27T12:06:31.243Z,5.70
2017-06-27T12:09:00.366Z,5.90
2017-06-27T12:11:29.512Z,5.53
2017-06-27T12:13:58.671Z,5.47
2017-06-27T12:16:27.822Z,6.10
2017-06-27T12:18:56.970Z,5.50
2017-06-27T12:21:26.169Z,6.47
2017-06-27T12:23:55.300Z,5.47
2017-06-27T12:26:24.454Z,5.40
2017-06-27T12:28:53.600Z,5.40
2017-06-27T12:31:22.757Z,4.63
2017-06-27T12:33:51.892Z,5.10
2017-06-27T12:36:21.076Z,5.27
2017-06-27T12:38:50.221Z,5.23
2017-06-27T12:41:19.365Z,5.43
2017-06-27T12:43:48.527Z,6.00
2017-06-27T12:46:17.684Z,5.40
2017-06-27T12:48:46.818Z,6.33
2017-06-27T12:51:15.989Z,6.13
2017-06-27T12:53:45.140Z,5.70
2017-06-27T12:56:14.278Z,6.07
2017-06-27T12:58:43.446Z,6.43
2017-06-27T13:01:12.594Z,6.00
2017-06-27T13:03:41.729Z,5.97
2017-06-27T13:06:10.888Z,6.53
2017-06-27T13:08:40.038Z,6.60
2017-06-27T13:11:09.184Z,5.60
2017-06-27T13:13:38.331Z,5.77
2017-06-27T13:16:07.527Z,5.47
2017-06-27T13:18:36.672Z,5.47
2017-06-27T13:21:05.821Z,5.63
2017-06-27T13:23:34.969Z,4.90
2017-06-27T13:26:04.113Z,4.80
2017-06-27T13:28:33.267Z,4.50
2017-06-27T13:31:02.424Z,4.00
2017-06-27T13:33:31.556Z,4.23
2017-06-27T13:36:00.710Z,3.67
2017-06-27T13:38:29.880Z,4.10
2017-06-27T13:40:59.027Z,4.20
2017-06-27T13:43:28.187Z,3.87
2017-06-27T13:45:57.327Z,4.47
2017-06-27T13:48:26.486Z,3.47
2017-06-27T13:50:55.681Z,4.37
2017-06-27T13:53:24.835Z,4.90
2017-06-27T13:55:53.982Z,5.00
2017-06-27T13:58:23.140Z,4.77
2017-06-27T14:00:52.275Z,4.50
2017-06-27T14:03:21.420Z,4.53
2017-06-27T14:05:50.581Z,5.30
2017-06-27T14:08:19.738Z,4.40
2017-06-27T14:10:48.890Z,4.63
2017-06-27T14:13:18.035Z,5.07
2017-06-27T14:15:47.180Z,3.93
2017-06-27T14:18:16.330Z,4.60
2017-06-27T14:20:45.482Z,4.30
2017-06-27T14:23:14.659Z,5.07
2017-06-27T14:25:43.792Z,5.33
2017-06-27T14:28:12.939Z,5.20
2017-06-27T14:30:42.087Z,4.33
2017-06-27T14:33:11.248Z,4.90
2017-06-27T14:35:40.394Z,4.83
2017-06-27T14:38:09.544Z,5.37
2017-06-27T14:40:38.702Z,4.90
2017-06-27T14:43:07.844Z,6.23
2017-06-27T14:45:37.012Z,5.17
2017-06-27T14:48:06.158Z,5.30
2017-06-27T14:50:35.316Z,4.50
2017-06-27T14:53:04.475Z,4.67
2017-06-27T14:55:33.635Z,6.87
2017-06-27T14:58:02.790Z,4.57
2017-06-27T15:00:31.943Z,4.40
2017-06-27T15:03:01.087Z,4.70
2017-06-27T15:05:30.266Z,4.73
2017-06-27T15:07:59.431Z,4.57
2017-06-27T15:10:28.583Z,4.67
2017-06-27T15:12:57.706Z,5.10
2017-06-27T15:15:26.860Z,4.50
2017-06-27T15:17:56.020Z,4.30
2017-06-27T15:20:25.168Z,4.50
2017-06-27T15:22:54.338Z,4.13
2017-06-27T15:25:23.483Z,3.93
2017-06-27T15:27:52.640Z,4.20
2017-06-27T15:30:21.775Z,4.53
2017-06-27T15:32:50.911Z,5.17
2017-06-27T15:35:20.095Z,4.47
2017-06-27T15:37:49.236Z,4.30
2017-06-27T15:40:18.408Z,4.00
2017-06-27T15:42:47.554Z,4.20
2017-06-27T15:45:16.698Z,4.30
2017-06-27T15:47:45.842Z,3.90
2017-06-27T15:50:15.010Z,4.07
2017-06-27T15:52:44.158Z,4.80
2017-06-27T15:55:13.316Z,4.43
2017-06-27T15:57:42.472Z,4.37
2017-06-27T16:00:11.607Z,4.80
2017-06-27T16:02:40.757Z,4.30
2017-06-27T16:05:09.898Z,4.63
2017-06-27T16:07:39.055Z,4.80
2017-06-27T16:10:08.217Z,4.43
2017-06-27T16:12:37.358Z,5.17
2017-06-27T16:15:06.522Z,5.40
2017-06-27T16:17:35.674Z,4.63
2017-06-27T16:20:04.838Z,4.60
2017-06-27T16:22:33.991Z,5.13
2017-06-27T16:25:03.129Z,5.30
2017-06-27T16:27:32.289Z,5.40
2017-06-27T16:30:01.441Z,5.10
2017-06-27T16:32:30.587Z,6.10
2017-06-27T16:34:59.730Z,6.00
2017-06-27T16:37:28.901Z,5.13
2017-06-27T16:39:58.059Z,6.33
2017-06-27T16:42:27.214Z,6.37
2017-06-27T16:44:56.358Z,6.43
2017-06-27T16:47:25.520Z,6.07
2017-06-27T16:49:55.797Z,5.90
2017-06-27T16:52:24.986Z,5.93
2017-06-27T16:54:54.126Z,8.40
2017-06-27T16:57:23.275Z,6.90
2017-06-27T16:59:52.427Z,6.60
2017-06-27T17:02:21.565Z,6.70
2017-06-27T17:04:50.727Z,7.23
2017-06-27T17:07:19.873Z,6.57
2017-06-27T17:09:49.035Z,6.80
2017-06-27T17:12:18.186Z,6.73
2017-06-27T17:14:47.356Z,6.33
2017-06-27T17:17:16.526Z,6.63
2017-06-27T17:19:45.683Z,7.30
2017-06-27T17:22:14.857Z,6.90
2017-06-27T17:24:43.993Z,6.90
2017-06-27T17:27:13.158Z,6.87
2017-06-27T17:29:42.312Z,7.47
2017-06-27T17:32:11.461Z,6.60
2017-06-27T17:34:40.621Z,6.53
2017-06-27T17:37:09.783Z,6.87
2017-06-27T17:39:38.937Z,6.30
2017-06-27T17:42:08.090Z,6.57
2017-06-27T17:44:37.239Z,6.63
2017-06-27T17:47:06.388Z,6.97
2017-06-27T17:49:35.551Z,6.40
2017-06-27T17:52:04.728Z,7.23
2017-06-27T17:54:33.892Z,6.43
2017-06-27T17:57:03.050Z,5.73
2017-06-27T17:59:32.219Z,5.57
2017-06-27T18:02:01.392Z,5.87
2017-06-27T18:04:30.550Z,5.53
2017-06-27T18:06:59.767Z,5.67
2017-06-27T18:09:28.919Z,6.27
2017-06-27T18:11:58.068Z,6.23
2017-06-27T18:14:27.219Z,6.07
2017-06-27T18:16:56.375Z,5.60
2017-06-27T18:19:25.520Z,5.90
2017-06-27T18:21:54.670Z,6.07
2017-06-27T18:24:23.830Z,6.03
2017-06-27T18:26:53.014Z,6.00
2017-06-27T18:29:22.186Z,7.07
2017-06-27T18:31:51.366Z,5.90
2017-06-27T18:34:20.514Z,8.70
2017-06-27T18:36:49.692Z,6.17
2017-06-27T18:39:19.083Z,5.70
2017-06-27T18:41:48.275Z,4.90
2017-06-27T18:44:17.419Z,5.20
2017-06-27T18:46:46.588Z,5.57
2017-06-27T18:49:15.753Z,5.23
2017-06-27T18:51:44.912Z,4.40
2017-06-27T18:54:14.065Z,4.20
2017-06-27T18:56:43.241Z,4.83
2017-06-27T18:59:12.396Z,5.30
2017-06-27T19:01:41.554Z,5.50
2017-06-27T19:04:10.759Z,5.00
2017-06-27T19:06:39.921Z,4.70
2017-06-27T19:09:09.066Z,4.83
2017-06-27T19:11:38.235Z,4.00
2017-06-27T19:14:07.383Z,4.13
2017-06-27T19:16:36.548Z,3.70
2017-06-27T19:19:05.753Z,3.77
2017-06-27T19:21:34.935Z,3.90
2017-06-27T19:24:04.113Z,3.93
2017-06-27T19:26:33.334Z,3.60
2017-06-27T19:29:02.487Z,3.33
2017-06-27T19:31:31.632Z,3.77
2017-06-27T19:34:00.785Z,3.53
2017-06-27T19:36:29.950Z,3.40
2017-06-27T19:38:59.096Z,3.60
2017-06-27T19:41:28.262Z,3.60
2017-06-27T19:43:57.428Z,3.70
2017-06-27T19:46:26.612Z,3.80
2017-06-27T19:48:55.767Z,4.00
2017-06-27T19:51:24.949Z,2.83
2017-06-27T19:53:54.106Z,3.13
2017-06-27T19:56:23.295Z,3.70
2017-06-27T19:58:52.463Z,3.47
2017-06-27T20:01:21.648Z,3.53
2017-06-27T20:03:50.969Z,3.87
2017-06-27T20:06:20.128Z,3.33
2017-06-27T20:08:49.283Z,3.40
2017-06-27T20:11:18.444Z,3.90
2017-06-27T20:13:47.602Z,3.80
2017-06-27T20:16:16.782Z,3.50
2017-06-27T20:18:45.948Z,3.80
2017-06-27T20:21:15.124Z,3.80
2017-06-27T20:23:44.269Z,3.80
2017-06-27T20:26:13.434Z,4.60
2017-06-27T20:28:42.619Z,4.07
2017-06-27T20:31:11.764Z,4.50
2017-06-27T20:33:40.933Z,3.60
2017-06-27T20:36:10.108Z,4.70
2017-06-27T20:38:39.258Z,3.93
2017-06-27T20:41:08.431Z,3.83
2017-06-27T20:43:37.574Z,4.17
2017-06-27T20:46:06.723Z,4.40
2017-06-27T20:48:35.884Z,4.00
2017-06-27T20:51:05.032Z,4.43
2017-06-27T20:53:34.265Z,4.20
2017-06-27T20:56:03.403Z,4.10
2017-06-27T20:58:32.590Z,4.13
2017-06-27T21:01:01.731Z,4.00
2017-06-27T21:03:30.883Z,4.70
2017-06-27T21:06:00.073Z,4.60
2017-06-27T21:08:29.222Z,4.67
2017-06-27T21:10:58.374Z,4.43
2017-06-27T21:13:27.562Z,4.13
2017-06-27T21:15:56.698Z,4.10
2017-06-27T21:18:25.859Z,3.83
2017-06-27T21:20:55.019Z,4.13
2017-06-27T21:23:24.197Z,4.37
2017-06-27T21:25:53.379Z,4.70
2017-06-27T21:28:22.546Z,5.00
2017-06-27T21:30:51.713Z,5.07
2017-06-27T21:33:20.868Z,4.33
2017-06-27T21:35:50.057Z,4.53
2017-06-27T21:38:19.216Z,5.67
2017-06-27T21:40:48.382Z,4.63
2017-06-27T21:43:17.553Z,4.60
2017-06-27T21:45:46.725Z,4.70
2017-06-27T21:48:15.863Z,4.50
2017-06-27T21:50:45.034Z,4.83
2017-06-27T21:53:14.179Z,5.00
2017-06-27T21:55:43.372Z,4.90
2017-06-27T21:58:12.515Z,5.63
2017-06-27T22:00:41.657Z,4.60
2017-06-27T22:03:10.827Z,4.80
2017-06-27T22:05:40.007Z,5.00
2017-06-27T22:08:09.173Z,4.83
2017-06-27T22:10:38.325Z,4.83
2017-06-27T22:13:07.469Z,5.03
2017-06-27T22:15:36.630Z,5.07
2017-06-27T22:18:05.786Z,5.13
2017-06-27T22:20:34.962Z,5.00
2017-06-27T22:23:04.127Z,4.87
2017-06-27T22:25:33.275Z,4.80
2017-06-27T22:28:02.417Z,4.90
2017-06-27T22:30:31.575Z,5.00
2017-06-27T22:33:00.711Z,5.47
2017-06-27T22:35:29.883Z,5.37
2017-06-27T22:37:59.048Z,5.77
2017-06-27T22:40:28.190Z,5.80
2017-06-27T22:42:57.339Z,5.00
2017-06-27T22:45:26.494Z,5.80
2017-06-27T22:47:55.670Z,6.57
2017-06-27T22:50:24.848Z,5.80
2017-06-27T22:52:54.008Z,5.77
2017-06-27T22:55:23.159Z,5.13
2017-06-27T22:57:52.322Z,4.83
2017-06-27T23:00:21.475Z,5.23
2017-06-27T23:02:50.624Z,5.93
2017-06-27T23:05:19.797Z,6.00
2017-06-27T23:07:48.930Z,5.67
2017-06-27T23:10:18.087Z,5.63
2017-06-27T23:12:47.242Z,5.23
2017-06-27T23:15:16.406Z,5.90
2017-06-27T23:17:45.568Z,6.33
2017-06-27T23:20:14.747Z,5.73
2017-06-27T23:22:43.910Z,5.87
2017-06-27T23:25:13.058Z,6.00
2017-06-27T23:27:42.216Z,5.67
2017-06-27T23:30:11.375Z,5.53
2017-06-27T23:32:40.524Z,5.90
2017-06-27T23:35:09.701Z,6.23
2017-06-27T23:37:38.854Z,5.47
2017-06-27T23:40:08.019Z,5.83
2017-06-27T23:42:37.188Z,5.90
2017-06-27T23:45:06.336Z,5.93
2017-06-27T23:47:35.477Z,6.67
2017-06-27T23:50:04.634Z,5.93
2017-06-27T23:52:33.779Z,6.03
2017-06-27T23:55:12.889Z,5.53
2017-06-27T23:57:42.033Z,6.30
